Wetterdaten: Mittwoch, 30.03.2016
Datum Zeit Auen-Temp. Temp gefhlt Luftfeuchte Luftdruck Regen Wind Richtung Richtung Sonnenschein Taupunkt Windben
30.03.2016 00:00 6,0 C 6,1 C 72 % 1014,9 hPa 0,0 mm 0,0 km/h (0 Bft) O 90 0 min 1,3 C 0,0 km/h (0 Bft)
30.03.2016 00:05 5,9 C 5,9 C 74 % 1014,9 hPa 0,0 mm 0,0 km/h (0 Bft) W 270 0 min 1,6 C 0,0 km/h (0 Bft)
30.03.2016 00:10 5,8 C 5,7 C 74 % 1014,8 hPa 0,0 mm 0,0 km/h (0 Bft) W-NW 292 0 min 1,5 C 0,0 km/h (0 Bft)
30.03.2016 00:15 6,0 C 5,8 C 74 % 1014,8 hPa 0,0 mm 0,0 km/h (0 Bft) SW 225 0 min 1,7 C 0,0 km/h (0 Bft)
30.03.2016 00:20 6,3 C 6,1 C 74 % 1014,8 hPa 0,0 mm 1,2 km/h (1 Bft) W-SW 247 0 min 2,0 C 4,2 km/h (1 Bft)
30.03.2016 00:25 6,6 C 6,4 C 75 % 1014,8 hPa 0,0 mm 3,3 km/h (1 Bft) SW 225 0 min 2,5 C 8,3 km/h (2 Bft)
30.03.2016 00:30 6,7 C 6,5 C 74 % 1014,8 hPa 0,0 mm 3,9 km/h (1 Bft) W-SW 247 0 min 2,4 C 7,5 km/h (2 Bft)
30.03.2016 00:35 6,7 C 6,6 C 74 % 1014,8 hPa 0,0 mm 3,3 km/h (1 Bft) S-SO 157 0 min 2,4 C 0,0 km/h (0 Bft)
30.03.2016 00:40 6,7 C 6,6 C 74 % 1014,8 hPa 0,0 mm 3,6 km/h (1 Bft) S-SO 157 0 min 2,4 C 0,0 km/h (0 Bft)
30.03.2016 00:45 6,6 C 6,5 C 75 % 1014,8 hPa 0,0 mm 1,5 km/h (1 Bft) SO 135 0 min 2,5 C 0,0 km/h (0 Bft)
30.03.2016 00:50 6,4 C 6,3 C 76 % 1014,2 hPa 0,0 mm 0,3 km/h (0 Bft) O-SO 112 0 min 2,5 C 0,0 km/h (0 Bft)
30.03.2016 00:55 6,1 C 6,0 C 76 % 1014,2 hPa 0,0 mm 0,0 km/h (0 Bft) O-SO 112 0 min 2,2 C 0,0 km/h (0 Bft)
30.03.2016 01:00 5,8 C 5,6 C 76 % 1014,2 hPa 0,0 mm 0,0 km/h (0 Bft) O-NO 67 0 min 1,9 C 0,0 km/h (0 Bft)
30.03.2016 01:05 5,7 C 5,5 C 77 % 1014,2 hPa 0,0 mm 0,0 km/h (0 Bft) O-NO 67 0 min 2,0 C 0,0 km/h (0 Bft)
30.03.2016 01:10 5,6 C 5,3 C 77 % 1014,1 hPa 0,0 mm 0,0 km/h (0 Bft) O-SO 112 0 min 1,9 C 0,0 km/h (0 Bft)
30.03.2016 01:15 5,7 C 5,4 C 78 % 1014,1 hPa 0,0 mm 0,0 km/h (0 Bft) S 180 0 min 2,2 C 0,0 km/h (0 Bft)
30.03.2016 01:20 5,7 C 5,4 C 78 % 1014,1 hPa 0,0 mm 0,0 km/h (0 Bft) O-SO 112 0 min 2,2 C 0,0 km/h (0 Bft)
30.03.2016 01:25 5,8 C 5,6 C 78 % 1014,1 hPa 0,0 mm 0,0 km/h (0 Bft) N-NO 22 0 min 2,3 C 0,0 km/h (0 Bft)
30.03.2016 01:30 5,7 C 5,5 C 78 % 1013,9 hPa 0,0 mm 0,0 km/h (0 Bft) O-NO 67 0 min 2,2 C 0,0 km/h (0 Bft)
30.03.2016 01:35 5,6 C 5,5 C 78 % 1013,9 hPa 0,0 mm 0,0 km/h (0 Bft) W-NW 292 0 min 2,1 C 0,0 km/h (0 Bft)
30.03.2016 01:40 5,5 C 5,4 C 77 % 1013,9 hPa 0,0 mm 0,0 km/h (0 Bft) O 90 0 min 1,8 C 0,0 km/h (0 Bft)
30.03.2016 01:45 5,7 C 5,6 C 78 % 1013,9 hPa 0,0 mm 0,0 km/h (0 Bft) O 90 0 min 2,2 C 0,0 km/h (0 Bft)
30.03.2016 01:50 5,7 C 5,6 C 78 % 1014,0 hPa 0,0 mm 0,0 km/h (0 Bft) N-NO 22 0 min 2,2 C 0,0 km/h (0 Bft)
30.03.2016 01:55 5,6 C 5,5 C 78 % 1014,0 hPa 0,0 mm 0,3 km/h (0 Bft) SO 135 0 min 2,1 C 0,0 km/h (0 Bft)
30.03.2016 02:00 5,7 C 5,6 C 78 % 1014,0 hPa 0,0 mm 1,5 km/h (1 Bft) NO 45 0 min 2,2 C 0,0 km/h (0 Bft)
30.03.2016 02:05 5,7 C 5,6 C 78 % 1014,0 hPa 0,0 mm 1,2 km/h (1 Bft) O-NO 67 0 min 2,2 C 11,0 km/h (2 Bft)
30.03.2016 02:10 5,7 C 5,7 C 78 % 1013,9 hPa 0,0 mm 0,0 km/h (0 Bft) O 90 0 min 2,2 C 0,0 km/h (0 Bft)
30.03.2016 02:15 5,8 C 5,7 C 78 % 1013,9 hPa 0,0 mm 0,0 km/h (0 Bft) O-NO 67 0 min 2,3 C 0,0 km/h (0 Bft)
30.03.2016 02:20 5,8 C 5,8 C 78 % 1013,9 hPa 0,0 mm 0,0 km/h (0 Bft) NW 315 0 min 2,3 C 0,0 km/h (0 Bft)
30.03.2016 02:25 5,9 C 5,8 C 77 % 1013,9 hPa 0,0 mm 0,0 km/h (0 Bft) O-NO 67 0 min 2,2 C 0,0 km/h (0 Bft)
30.03.2016 02:30 6,1 C 6,0 C 76 % 1013,4 hPa 0,0 mm 0,0 km/h (0 Bft) NO 45 0 min 2,2 C 0,0 km/h (0 Bft)
30.03.2016 02:35 5,8 C 5,8 C 77 % 1013,4 hPa 0,0 mm 0,0 km/h (0 Bft) W-NW 292 0 min 2,1 C 0,0 km/h (0 Bft)
30.03.2016 02:38 5,8 C 5,8 C 77 % 1013,4 hPa 0,0 mm 0,6 km/h (0 Bft) W 270 0 min 2,1 C 0,0 km/h (0 Bft)
30.03.2016 02:40 5,8 C 5,8 C 77 % 1013,4 hPa 0,0 mm 0,6 km/h (0 Bft) W 270 0 min 2,1 C 0,0 km/h (0 Bft)
30.03.2016 02:45 5,8 C 5,8 C 77 % 1013,4 hPa 0,0 mm 0,6 km/h (0 Bft) O-NO 67 0 min 2,1 C 0,0 km/h (0 Bft)
30.03.2016 02:50 5,9 C 5,8 C 77 % 1013,5 hPa 0,0 mm 0,3 km/h (0 Bft) NW 315 0 min 2,2 C 0,0 km/h (0 Bft)
30.03.2016 02:55 5,9 C 5,8 C 77 % 1013,5 hPa 0,0 mm 0,0 km/h (0 Bft) NW 315 0 min 2,2 C 0,0 km/h (0 Bft)
30.03.2016 03:01 5,9 C 5,9 C 77 % 1013,5 hPa 0,0 mm 0,0 km/h (0 Bft) NW 315 0 min 2,2 C 3,0 km/h (1 Bft)
30.03.2016 03:05 5,8 C 5,8 C 77 % 1013,5 hPa 0,0 mm 0,0 km/h (0 Bft) S 180 0 min 2,1 C 0,0 km/h (0 Bft)
30.03.2016 03:10 5,7 C 5,7 C 77 % 1013,4 hPa 0,0 mm 0,0 km/h (0 Bft) O-SO 112 0 min 2,0 C 0,0 km/h (0 Bft)
30.03.2016 03:15 5,8 C 5,7 C 77 % 1013,4 hPa 0,0 mm 0,3 km/h (0 Bft) W-NW 292 0 min 2,1 C 4,8 km/h (1 Bft)
30.03.2016 03:20 5,8 C 5,7 C 77 % 1013,4 hPa 0,0 mm 1,2 km/h (1 Bft) W-SW 247 0 min 2,1 C 0,0 km/h (0 Bft)
30.03.2016 03:25 5,8 C 5,7 C 77 % 1013,4 hPa 0,0 mm 1,5 km/h (1 Bft) SW 225 0 min 2,1 C 3,0 km/h (1 Bft)
30.03.2016 03:30 5,8 C 5,7 C 77 % 1013,2 hPa 0,0 mm 1,5 km/h (1 Bft) W-SW 247 0 min 2,1 C 6,0 km/h (2 Bft)
30.03.2016 03:35 5,9 C 5,9 C 77 % 1013,2 hPa 0,0 mm 3,0 km/h (1 Bft) W-NW 292 0 min 2,2 C 3,9 km/h (1 Bft)
30.03.2016 03:40 5,9 C 5,9 C 77 % 1013,2 hPa 0,0 mm 3,9 km/h (1 Bft) SW 225 0 min 2,2 C 18,2 km/h (3 Bft)
30.03.2016 03:45 6,3 C 6,1 C 76 % 1013,2 hPa 0,0 mm 7,2 km/h (2 Bft) S 180 0 min 2,4 C 13,4 km/h (3 Bft)
30.03.2016 03:50 6,3 C 6,0 C 76 % 1013,5 hPa 0,0 mm 8,3 km/h (2 Bft) O-NO 67 0 min 2,4 C 0,0 km/h (0 Bft)
30.03.2016 03:55 6,3 C 6,2 C 76 % 1013,5 hPa 0,0 mm 5,4 km/h (1 Bft) SW 225 0 min 2,4 C 6,9 km/h (2 Bft)
30.03.2016 04:00 6,3 C 6,1 C 76 % 1013,5 hPa 0,0 mm 3,6 km/h (1 Bft) S 180 0 min 2,4 C 4,5 km/h (1 Bft)
30.03.2016 04:05 5,9 C 5,8 C 77 % 1013,5 hPa 0,0 mm 1,8 km/h (1 Bft) S-SO 157 0 min 2,2 C 0,0 km/h (0 Bft)
30.03.2016 04:10 5,9 C 5,8 C 77 % 1013,2 hPa 0,0 mm 0,6 km/h (0 Bft) S-SO 157 0 min 2,2 C 0,0 km/h (0 Bft)
30.03.2016 04:15 6,3 C 6,2 C 77 % 1013,2 hPa 0,0 mm 1,5 km/h (1 Bft) W 270 0 min 2,6 C 3,3 km/h (1 Bft)
30.03.2016 04:20 6,4 C 6,3 C 77 % 1013,2 hPa 0,0 mm 2,7 km/h (1 Bft) S-SW 202 0 min 2,7 C 6,9 km/h (2 Bft)
30.03.2016 04:25 6,8 C 6,7 C 77 % 1013,2 hPa 0,0 mm 5,1 km/h (1 Bft) S 180 0 min 3,1 C 4,5 km/h (1 Bft)
30.03.2016 04:30 6,6 C 6,5 C 77 % 1013,2 hPa 0,0 mm 4,5 km/h (1 Bft) O 90 0 min 2,9 C 0,0 km/h (0 Bft)
30.03.2016 04:35 6,5 C 6,4 C 78 % 1013,2 hPa 0,0 mm 0,6 km/h (0 Bft) O 90 0 min 2,9 C 0,0 km/h (0 Bft)
30.03.2016 04:40 6,4 C 6,4 C 78 % 1013,2 hPa 0,0 mm 0,0 km/h (0 Bft) SO 135 0 min 2,8 C 0,0 km/h (0 Bft)
30.03.2016 04:45 6,5 C 6,4 C 78 % 1013,2 hPa 0,0 mm 0,6 km/h (0 Bft) SO 135 0 min 2,9 C 0,0 km/h (0 Bft)
30.03.2016 04:50 6,6 C 6,5 C 78 % 1013,1 hPa 0,0 mm 0,6 km/h (0 Bft) SO 135 0 min 3,0 C 0,0 km/h (0 Bft)
30.03.2016 04:55 6,8 C 6,7 C 78 % 1013,1 hPa 0,0 mm 2,1 km/h (1 Bft) SW 225 0 min 3,2 C 6,3 km/h (2 Bft)
30.03.2016 05:00 6,7 C 6,7 C 78 % 1013,1 hPa 0,0 mm 2,1 km/h (1 Bft) O-SO 112 0 min 3,1 C 0,0 km/h (0 Bft)
30.03.2016 05:05 6,2 C 6,4 C 77 % 1013,1 hPa 0,0 mm 0,6 km/h (0 Bft) W-SW 247 0 min 2,5 C 3,0 km/h (1 Bft)
30.03.2016 05:10 6,2 C 6,3 C 77 % 1013,0 hPa 0,0 mm 0,3 km/h (0 Bft) W-NW 292 0 min 2,5 C 0,0 km/h (0 Bft)
30.03.2016 05:15 6,0 C 6,1 C 77 % 1013,0 hPa 0,0 mm 0,0 km/h (0 Bft) W 270 0 min 2,3 C 0,0 km/h (0 Bft)
30.03.2016 05:20 6,0 C 6,0 C 77 % 1013,0 hPa 0,0 mm 0,0 km/h (0 Bft) O-SO 112 0 min 2,3 C 0,0 km/h (0 Bft)
30.03.2016 05:25 6,0 C 5,9 C 78 % 1013,0 hPa 0,0 mm 0,0 km/h (0 Bft) N-NO 22 0 min 2,5 C 0,0 km/h (0 Bft)
30.03.2016 05:30 5,8 C 5,8 C 78 % 1013,0 hPa 0,0 mm 0,0 km/h (0 Bft) N-NW 337 0 min 2,3 C 0,0 km/h (0 Bft)
30.03.2016 05:35 5,7 C 5,7 C 78 % 1013,0 hPa 0,0 mm 0,0 km/h (0 Bft) N-NW 337 0 min 2,2 C 0,0 km/h (0 Bft)
30.03.2016 05:38 5,7 C 5,7 C 79 % 1013,0 hPa 0,0 mm 0,0 km/h (0 Bft) NO 45 0 min 2,3 C 0,0 km/h (0 Bft)
30.03.2016 05:41 5,7 C 5,7 C 79 % 1013,0 hPa 0,0 mm 0,0 km/h (0 Bft) NO 45 0 min 2,3 C 0,0 km/h (0 Bft)
30.03.2016 05:45 5,7 C 5,6 C 79 % 1013,0 hPa 0,0 mm 0,0 km/h (0 Bft) O 90 0 min 2,3 C 0,0 km/h (0 Bft)
30.03.2016 05:50 5,6 C 5,6 C 79 % 1012,9 hPa 0,0 mm 0,0 km/h (0 Bft) N-NO 22 0 min 2,3 C 0,0 km/h (0 Bft)
30.03.2016 05:55 5,9 C 5,8 C 80 % 1012,9 hPa 0,0 mm 0,3 km/h (0 Bft) O-SO 112 0 min 2,7 C 0,0 km/h (0 Bft)
30.03.2016 06:00 6,0 C 6,0 C 77 % 1012,9 hPa 0,0 mm 0,3 km/h (0 Bft) O-SO 112 0 min 2,3 C 0,0 km/h (0 Bft)
30.03.2016 06:05 6,3 C 6,3 C 77 % 1012,9 hPa 0,0 mm 0,3 km/h (0 Bft) O-NO 67 0 min 2,6 C 0,0 km/h (0 Bft)
30.03.2016 06:10 6,4 C 6,3 C 80 % 1012,9 hPa 0,0 mm 0,3 km/h (0 Bft) O-NO 67 0 min 3,2 C 0,0 km/h (0 Bft)
30.03.2016 06:15 6,3 C 6,2 C 77 % 1012,9 hPa 0,0 mm 0,0 km/h (0 Bft) O-NO 67 0 min 2,6 C 0,0 km/h (0 Bft)
30.03.2016 06:20 6,2 C 6,0 C 80 % 1012,9 hPa 0,0 mm 0,0 km/h (0 Bft) O-SO 112 0 min 3,0 C 0,0 km/h (0 Bft)
30.03.2016 06:25 6,1 C 5,9 C 80 % 1012,9 hPa 0,0 mm 0,0 km/h (0 Bft) O-SO 112 0 min 2,9 C 0,0 km/h (0 Bft)
30.03.2016 06:30 6,1 C 5,9 C 80 % 1012,7 hPa 0,0 mm 0,0 km/h (0 Bft) S-SO 157 0 min 2,9 C 0,0 km/h (0 Bft)
30.03.2016 06:35 6,1 C 5,9 C 80 % 1012,7 hPa 0,0 mm 0,0 km/h (0 Bft) O-NO 67 0 min 2,9 C 0,0 km/h (0 Bft)
30.03.2016 06:40 6,2 C 6,0 C 78 % 1012,7 hPa 0,0 mm 0,0 km/h (0 Bft) O-SO 112 0 min 2,7 C 0,0 km/h (0 Bft)
30.03.2016 06:45 6,4 C 6,2 C 78 % 1012,7 hPa 0,0 mm 0,0 km/h (0 Bft) N-NO 22 0 min 2,8 C 0,0 km/h (0 Bft)
30.03.2016 06:50 6,4 C 6,1 C 81 % 1012,6 hPa 0,0 mm 0,0 km/h (0 Bft) N 360 0 min 3,4 C 0,0 km/h (0 Bft)
30.03.2016 06:55 6,1 C 5,9 C 81 % 1012,6 hPa 0,0 mm 0,0 km/h (0 Bft) NW 315 0 min 3,1 C 0,0 km/h (0 Bft)
30.03.2016 07:00 6,3 C 6,0 C 82 % 1012,6 hPa 0,0 mm 0,0 km/h (0 Bft) W-SW 247 0 min 3,5 C 0,0 km/h (0 Bft)
30.03.2016 07:05 6,6 C 6,3 C 82 % 1012,6 hPa 0,0 mm 2,1 km/h (1 Bft) W-SW 247 0 min 3,8 C 13,7 km/h (3 Bft)
30.03.2016 07:10 6,9 C 6,7 C 81 % 1012,4 hPa 0,0 mm 3,6 km/h (1 Bft) N-NO 22 0 min 3,9 C 0,0 km/h (0 Bft)
30.03.2016 07:15 6,8 C 6,7 C 80 % 1012,4 hPa 0,0 mm 2,1 km/h (1 Bft) O-NO 67 0 min 3,6 C 0,0 km/h (0 Bft)
30.03.2016 07:20 6,6 C 6,6 C 80 % 1012,4 hPa 0,0 mm 0,0 km/h (0 Bft) N-NW 337 0 min 3,4 C 0,0 km/h (0 Bft)
30.03.2016 07:25 6,1 C 6,3 C 80 % 1012,4 hPa 0,0 mm 0,0 km/h (0 Bft) O-SO 112 0 min 2,9 C 0,0 km/h (0 Bft)
30.03.2016 07:30 6,2 C 6,3 C 80 % 1012,5 hPa 0,0 mm 0,0 km/h (0 Bft) N-NO 22 0 min 3,0 C 0,0 km/h (0 Bft)
30.03.2016 07:35 6,4 C 6,4 C 81 % 1012,5 hPa 0,0 mm 0,0 km/h (0 Bft) O 90 0 min 3,4 C 0,0 km/h (0 Bft)
30.03.2016 07:40 6,4 C 6,4 C 80 % 1012,5 hPa 0,0 mm 0,0 km/h (0 Bft) O-SO 112 0 min 3,2 C 0,0 km/h (0 Bft)
30.03.2016 07:45 6,7 C 6,7 C 78 % 1012,5 hPa 0,0 mm 0,9 km/h (0 Bft) S-SO 157 0 min 3,1 C 0,0 km/h (0 Bft)
30.03.2016 07:50 6,8 C 6,8 C 78 % 1012,4 hPa 0,0 mm 0,9 km/h (0 Bft) O-SO 112 0 min 3,2 C 0,0 km/h (0 Bft)
30.03.2016 07:55 6,8 C 6,9 C 78 % 1012,4 hPa 0,0 mm 0,0 km/h (0 Bft) NO 45 0 min 3,2 C 0,0 km/h (0 Bft)
30.03.2016 08:00 6,9 C 7,0 C 78 % 1012,4 hPa 0,0 mm 0,0 km/h (0 Bft) O-SO 112 0 min 3,3 C 0,0 km/h (0 Bft)
30.03.2016 08:05 7,0 C 7,2 C 77 % 1012,4 hPa 0,0 mm 0,3 km/h (0 Bft) O-SO 112 0 min 3,2 C 3,6 km/h (1 Bft)
30.03.2016 08:10 7,1 C 7,3 C 77 % 1012,6 hPa 0,0 mm 0,3 km/h (0 Bft) O-NO 67 0 min 3,3 C 0,0 km/h (0 Bft)
30.03.2016 08:15 7,2 C 7,6 C 77 % 1012,6 hPa 0,0 mm 0,3 km/h (0 Bft) O-NO 67 0 min 3,4 C 0,0 km/h (0 Bft)
30.03.2016 08:20 7,4 C 7,8 C 77 % 1012,6 hPa 0,0 mm 0,0 km/h (0 Bft) NO 45 0 min 3,6 C 0,0 km/h (0 Bft)
30.03.2016 08:25 7,5 C 8,1 C 77 % 1012,6 hPa 0,0 mm 0,0 km/h (0 Bft) NW 315 0 min 3,7 C 0,0 km/h (0 Bft)
30.03.2016 08:30 7,7 C 8,4 C 76 % 1012,9 hPa 0,0 mm 0,6 km/h (0 Bft) O-NO 67 0 min 3,7 C 3,6 km/h (1 Bft)
30.03.2016 08:35 7,8 C 8,6 C 76 % 1012,9 hPa 0,0 mm 0,6 km/h (0 Bft) SW 225 0 min 3,8 C 0,0 km/h (0 Bft)
30.03.2016 08:40 7,9 C 8,9 C 76 % 1012,9 hPa 0,0 mm 0,3 km/h (0 Bft) NO 45 0 min 3,9 C 0,0 km/h (0 Bft)
30.03.2016 08:43 7,9 C 8,9 C 76 % 1012,9 hPa 0,0 mm 0,3 km/h (0 Bft) NO 45 0 min 3,9 C 0,0 km/h (0 Bft)
30.03.2016 08:45 8,2 C 9,5 C 76 % 1012,9 hPa 0,0 mm 0,0 km/h (0 Bft) O-NO 67 0 min 4,2 C 0,0 km/h (0 Bft)
30.03.2016 08:50 8,4 C 9,9 C 75 % 1012,8 hPa 0,0 mm 0,3 km/h (0 Bft) N-NO 22 0 min 4,2 C 0,0 km/h (0 Bft)
30.03.2016 08:55 8,8 C 10,6 C 75 % 1012,8 hPa 0,0 mm 0,6 km/h (0 Bft) NW 315 0 min 4,6 C 0,0 km/h (0 Bft)
30.03.2016 09:00 9,0 C 11,0 C 75 % 1012,8 hPa 0,0 mm 1,5 km/h (1 Bft) W-NW 292 0 min 4,8 C 0,0 km/h (0 Bft)
30.03.2016 09:05 9,2 C 11,2 C 74 % 1012,8 hPa 0,0 mm 1,5 km/h (1 Bft) N-NO 22 0 min 4,8 C 0,0 km/h (0 Bft)
30.03.2016 09:10 9,3 C 11,1 C 74 % 1013,1 hPa 0,0 mm 0,3 km/h (0 Bft) NW 315 0 min 4,9 C 0,0 km/h (0 Bft)
30.03.2016 09:15 9,3 C 11,1 C 73 % 1013,1 hPa 0,0 mm 0,0 km/h (0 Bft) NW 315 0 min 4,7 C 0,0 km/h (0 Bft)
30.03.2016 09:20 9,4 C 11,2 C 73 % 1013,1 hPa 0,0 mm 0,0 km/h (0 Bft) NW 315 0 min 4,8 C 0,0 km/h (0 Bft)
30.03.2016 09:25 9,7 C 11,9 C 73 % 1013,1 hPa 0,0 mm 0,3 km/h (0 Bft) W-SW 247 0 min 5,1 C 6,6 km/h (2 Bft)
30.03.2016 09:30 9,9 C 12,4 C 72 % 1013,4 hPa 0,0 mm 3,6 km/h (1 Bft) SW 225 0 min 5,1 C 6,0 km/h (2 Bft)
30.03.2016 09:35 10,3 C 13,1 C 71 % 1013,4 hPa 0,0 mm 5,7 km/h (1 Bft) SW 225 0 min 5,3 C 8,0 km/h (2 Bft)
30.03.2016 09:40 10,4 C 12,9 C 70 % 1013,4 hPa 0,0 mm 6,3 km/h (2 Bft) W-SW 247 0 min 5,2 C 5,1 km/h (1 Bft)
30.03.2016 09:45 10,6 C 12,8 C 69 % 1013,4 hPa 0,0 mm 8,0 km/h (2 Bft) SO 135 0 min 5,2 C 8,3 km/h (2 Bft)
30.03.2016 09:50 10,8 C 13,0 C 68 % 1013,6 hPa 0,0 mm 8,3 km/h (2 Bft) SW 225 0 min 5,1 C 13,4 km/h (3 Bft)
30.03.2016 09:55 11,0 C 12,9 C 67 % 1013,6 hPa 0,0 mm 8,9 km/h (2 Bft) W 270 0 min 5,1 C 20,0 km/h (4 Bft)
30.03.2016 10:00 11,3 C 13,8 C 67 % 1013,6 hPa 0,0 mm 7,5 km/h (2 Bft) S 180 0 min 5,4 C 0,0 km/h (0 Bft)
30.03.2016 10:05 11,7 C 14,7 C 66 % 1013,6 hPa 0,0 mm 5,7 km/h (1 Bft) S-SW 202 0 min 5,6 C 7,7 km/h (2 Bft)
30.03.2016 10:10 11,9 C 15,0 C 66 % 1013,6 hPa 0,0 mm 6,6 km/h (2 Bft) SW 225 5 min 5,8 C 16,7 km/h (3 Bft)
30.03.2016 10:15 12,0 C 14,9 C 64 % 1013,6 hPa 0,0 mm 7,7 km/h (2 Bft) SW 225 0 min 5,4 C 14,3 km/h (3 Bft)
30.03.2016 10:20 12,1 C 14,9 C 63 % 1013,6 hPa 0,0 mm 9,2 km/h (2 Bft) W 270 0 min 5,3 C 13,1 km/h (3 Bft)
30.03.2016 10:25 12,3 C 15,1 C 63 % 1013,6 hPa 0,0 mm 10,1 km/h (2 Bft) W 270 0 min 5,5 C 27,4 km/h (4 Bft)
30.03.2016 10:30 12,4 C 15,3 C 62 % 1013,6 hPa 0,0 mm 12,2 km/h (2 Bft) W-SW 247 5 min 5,3 C 16,7 km/h (3 Bft)
30.03.2016 10:35 12,5 C 15,3 C 61 % 1013,6 hPa 0,0 mm 11,6 km/h (2 Bft) W 270 0 min 5,2 C 9,5 km/h (2 Bft)
30.03.2016 10:40 12,6 C 15,4 C 61 % 1013,6 hPa 0,0 mm 11,6 km/h (2 Bft) W-SW 247 5 min 5,3 C 11,3 km/h (2 Bft)
30.03.2016 10:45 12,5 C 15,1 C 61 % 1013,6 hPa 0,0 mm 11,3 km/h (2 Bft) W-NW 292 0 min 5,2 C 35,5 km/h (5 Bft)
30.03.2016 10:50 12,5 C 15,0 C 60 % 1014,1 hPa 0,0 mm 11,3 km/h (2 Bft) W-SW 247 0 min 5,0 C 15,5 km/h (3 Bft)
30.03.2016 10:55 12,4 C 14,7 C 59 % 1014,1 hPa 0,0 mm 13,7 km/h (3 Bft) W 270 0 min 4,6 C 22,1 km/h (4 Bft)
30.03.2016 11:00 12,6 C 15,0 C 59 % 1014,1 hPa 0,0 mm 12,5 km/h (3 Bft) W 270 0 min 4,8 C 14,3 km/h (3 Bft)
30.03.2016 11:05 12,8 C 15,6 C 60 % 1014,1 hPa 0,0 mm 9,8 km/h (2 Bft) NW 315 0 min 5,2 C 15,2 km/h (3 Bft)
30.03.2016 11:10 13,1 C 15,8 C 59 % 1014,2 hPa 0,0 mm 10,4 km/h (2 Bft) W 270 0 min 5,3 C 17,3 km/h (3 Bft)
30.03.2016 11:15 13,1 C 16,2 C 59 % 1014,2 hPa 0,0 mm 10,7 km/h (2 Bft) W-SW 247 0 min 5,3 C 4,2 km/h (1 Bft)
30.03.2016 11:20 13,1 C 16,2 C 59 % 1014,2 hPa 0,0 mm 8,9 km/h (2 Bft) NW 315 0 min 5,3 C 9,5 km/h (2 Bft)
30.03.2016 11:25 13,3 C 16,6 C 59 % 1014,2 hPa 0,0 mm 7,7 km/h (2 Bft) W-SW 247 5 min 5,5 C 13,4 km/h (3 Bft)
30.03.2016 11:30 13,4 C 16,6 C 59 % 1014,1 hPa 0,0 mm 8,6 km/h (2 Bft) N-NO 22 0 min 5,6 C 10,1 km/h (2 Bft)
30.03.2016 11:35 13,4 C 16,4 C 59 % 1014,1 hPa 0,0 mm 9,5 km/h (2 Bft) SW 225 0 min 5,6 C 9,2 km/h (2 Bft)
30.03.2016 11:40 13,3 C 16,1 C 59 % 1014,1 hPa 0,0 mm 8,6 km/h (2 Bft) W-NW 292 0 min 5,5 C 9,5 km/h (2 Bft)
30.03.2016 11:44 13,2 C 15,9 C 58 % 1014,1 hPa 0,0 mm 6,9 km/h (2 Bft) S-SO 157 0 min 5,1 C 3,9 km/h (1 Bft)
30.03.2016 11:45 13,2 C 15,9 C 58 % 1014,1 hPa 0,0 mm 6,9 km/h (2 Bft) S-SO 157 0 min 5,1 C 3,9 km/h (1 Bft)
30.03.2016 11:50 13,2 C 15,9 C 58 % 1014,0 hPa 0,0 mm 7,5 km/h (2 Bft) W-SW 247 0 min 5,1 C 10,1 km/h (2 Bft)
30.03.2016 11:55 13,3 C 15,9 C 58 % 1014,0 hPa 0,0 mm 8,0 km/h (2 Bft) W 270 0 min 5,2 C 16,7 km/h (3 Bft)
30.03.2016 12:00 13,5 C 16,1 C 58 % 1014,0 hPa 0,0 mm 8,0 km/h (2 Bft) W 270 0 min 5,4 C 13,4 km/h (3 Bft)
30.03.2016 12:05 13,5 C 16,3 C 58 % 1014,0 hPa 0,0 mm 7,7 km/h (2 Bft) NW 315 0 min 5,4 C 4,2 km/h (1 Bft)
30.03.2016 12:10 13,5 C 17,0 C 58 % 1013,8 hPa 0,0 mm 6,9 km/h (2 Bft) W-SW 247 5 min 5,4 C 8,3 km/h (2 Bft)
30.03.2016 12:15 14,2 C 18,2 C 57 % 1013,8 hPa 0,0 mm 6,9 km/h (2 Bft) NW 315 0 min 5,8 C 6,0 km/h (2 Bft)
30.03.2016 12:20 14,2 C 18,2 C 57 % 1013,8 hPa 0,0 mm 8,3 km/h (2 Bft) NW 315 5 min 5,8 C 13,1 km/h (3 Bft)
30.03.2016 12:25 14,3 C 17,9 C 56 % 1013,8 hPa 0,0 mm 10,1 km/h (2 Bft) W 270 5 min 5,6 C 13,7 km/h (3 Bft)
30.03.2016 12:30 14,6 C 17,9 C 57 % 1013,9 hPa 0,0 mm 10,1 km/h (2 Bft) W 270 0 min 6,2 C 12,8 km/h (3 Bft)
30.03.2016 12:35 14,8 C 18,1 C 57 % 1013,9 hPa 0,0 mm 9,2 km/h (2 Bft) N-NO 22 0 min 6,4 C 16,7 km/h (3 Bft)
30.03.2016 12:40 14,8 C 17,9 C 56 % 1013,9 hPa 0,0 mm 10,1 km/h (2 Bft) W 270 0 min 6,1 C 5,1 km/h (1 Bft)
30.03.2016 12:45 14,9 C 18,2 C 56 % 1013,9 hPa 0,0 mm 9,5 km/h (2 Bft) NW 315 0 min 6,2 C 11,3 km/h (2 Bft)
30.03.2016 12:50 15,0 C 18,5 C 56 % 1013,8 hPa 0,0 mm 8,3 km/h (2 Bft) NW 315 0 min 6,3 C 8,9 km/h (2 Bft)
30.03.2016 12:55 15,6 C 19,8 C 55 % 1013,8 hPa 0,0 mm 9,8 km/h (2 Bft) W-NW 292 0 min 6,6 C 19,7 km/h (3 Bft)
30.03.2016 13:00 15,8 C 20,3 C 55 % 1013,8 hPa 0,0 mm 10,4 km/h (2 Bft) W-NW 292 0 min 6,8 C 8,0 km/h (2 Bft)
30.03.2016 13:05 16,2 C 21,1 C 52 % 1013,8 hPa 0,0 mm 10,1 km/h (2 Bft) NW 315 5 min 6,3 C 15,5 km/h (3 Bft)
30.03.2016 13:10 16,1 C 20,5 C 52 % 1013,9 hPa 0,0 mm 8,0 km/h (2 Bft) S-SO 157 0 min 6,2 C 5,7 km/h (1 Bft)
30.03.2016 13:15 16,6 C 19,8 C 52 % 1013,9 hPa 0,0 mm 8,3 km/h (2 Bft) NW 315 0 min 6,7 C 9,5 km/h (2 Bft)
30.03.2016 13:20 16,7 C 19,5 C 52 % 1013,9 hPa 0,0 mm 9,2 km/h (2 Bft) NW 315 0 min 6,8 C 17,0 km/h (3 Bft)
30.03.2016 13:25 16,9 C 19,5 C 52 % 1013,9 hPa 0,0 mm 11,0 km/h (2 Bft) NW 315 0 min 7,0 C 9,5 km/h (2 Bft)
30.03.2016 13:30 17,0 C 19,9 C 52 % 1014,4 hPa 0,0 mm 11,9 km/h (2 Bft) N-NW 337 0 min 7,1 C 11,6 km/h (2 Bft)
30.03.2016 13:35 16,3 C 19,3 C 52 % 1014,4 hPa 0,0 mm 11,9 km/h (2 Bft) NO 45 5 min 6,4 C 10,7 km/h (2 Bft)
30.03.2016 13:40 16,0 C 18,6 C 52 % 1014,4 hPa 0,0 mm 11,9 km/h (2 Bft) W-NW 292 0 min 6,2 C 20,6 km/h (4 Bft)
30.03.2016 13:45 15,8 C 18,7 C 54 % 1014,4 hPa 0,0 mm 12,2 km/h (2 Bft) W 270 0 min 6,5 C 15,2 km/h (3 Bft)
30.03.2016 13:50 15,9 C 18,7 C 54 % 1014,3 hPa 0,0 mm 12,2 km/h (2 Bft) W-NW 292 0 min 6,6 C 16,4 km/h (3 Bft)
30.03.2016 13:55 15,4 C 17,7 C 54 % 1014,3 hPa 0,0 mm 11,6 km/h (2 Bft) W 270 0 min 6,1 C 11,9 km/h (2 Bft)
30.03.2016 14:00 15,2 C 17,4 C 54 % 1014,3 hPa 0,0 mm 10,1 km/h (2 Bft) W 270 0 min 6,0 C 11,0 km/h (2 Bft)
30.03.2016 14:05 15,2 C 17,4 C 54 % 1014,3 hPa 0,0 mm 9,2 km/h (2 Bft) W 270 0 min 6,0 C 13,1 km/h (3 Bft)
30.03.2016 14:10 15,2 C 17,4 C 54 % 1013,9 hPa 0,0 mm 11,9 km/h (2 Bft) W-NW 292 0 min 6,0 C 10,1 km/h (2 Bft)
30.03.2016 14:15 15,4 C 17,7 C 54 % 1013,9 hPa 0,0 mm 11,3 km/h (2 Bft) W 270 0 min 6,1 C 10,1 km/h (2 Bft)
30.03.2016 14:20 15,4 C 17,6 C 54 % 1013,9 hPa 0,0 mm 10,4 km/h (2 Bft) W-NW 292 0 min 6,1 C 9,5 km/h (2 Bft)
30.03.2016 14:25 15,5 C 17,8 C 54 % 1013,9 hPa 0,0 mm 11,9 km/h (2 Bft) W-SW 247 0 min 6,2 C 14,6 km/h (3 Bft)
30.03.2016 14:30 15,4 C 17,9 C 54 % 1014,0 hPa 0,0 mm 11,9 km/h (2 Bft) W 270 0 min 6,1 C 20,3 km/h (4 Bft)
30.03.2016 14:35 15,4 C 17,7 C 53 % 1014,0 hPa 0,0 mm 13,1 km/h (3 Bft) W 270 0 min 5,9 C 18,2 km/h (3 Bft)
30.03.2016 14:40 15,3 C 17,5 C 53 % 1014,0 hPa 0,0 mm 12,8 km/h (3 Bft) W-SW 247 0 min 5,8 C 9,8 km/h (2 Bft)
30.03.2016 14:43 15,3 C 17,4 C 53 % 1014,0 hPa 0,0 mm 11,6 km/h (2 Bft) W 270 0 min 5,8 C 20,6 km/h (4 Bft)
30.03.2016 14:45 15,3 C 17,4 C 53 % 1014,0 hPa 0,0 mm 11,6 km/h (2 Bft) W 270 0 min 5,8 C 20,6 km/h (4 Bft)
30.03.2016 14:50 15,1 C 16,8 C 53 % 1013,9 hPa 0,0 mm 12,2 km/h (2 Bft) W 270 0 min 5,6 C 14,9 km/h (3 Bft)
30.03.2016 14:55 14,5 C 16,0 C 54 % 1013,9 hPa 0,0 mm 15,2 km/h (3 Bft) W-NW 292 0 min 5,3 C 22,4 km/h (4 Bft)
30.03.2016 15:00 14,4 C 15,3 C 55 % 1013,9 hPa 0,0 mm 15,2 km/h (3 Bft) NW 315 0 min 5,5 C 20,3 km/h (4 Bft)
30.03.2016 15:05 14,5 C 15,2 C 55 % 1013,9 hPa 0,0 mm 14,9 km/h (3 Bft) W 270 0 min 5,6 C 14,0 km/h (3 Bft)
30.03.2016 15:10 14,8 C 15,9 C 55 % 1013,7 hPa 0,0 mm 14,0 km/h (3 Bft) W 270 0 min 5,8 C 17,3 km/h (3 Bft)
30.03.2016 15:15 14,9 C 16,9 C 54 % 1013,7 hPa 0,0 mm 12,5 km/h (3 Bft) W-SW 247 0 min 5,7 C 8,3 km/h (2 Bft)
30.03.2016 15:20 15,2 C 17,6 C 54 % 1013,7 hPa 0,0 mm 12,5 km/h (3 Bft) W-NW 292 0 min 6,0 C 20,3 km/h (4 Bft)
30.03.2016 15:25 14,8 C 17,1 C 54 % 1013,7 hPa 0,0 mm 12,5 km/h (3 Bft) W-NW 292 0 min 5,6 C 13,1 km/h (3 Bft)
30.03.2016 15:30 14,8 C 17,0 C 54 % 1013,8 hPa 0,0 mm 13,1 km/h (3 Bft) W-SW 247 0 min 5,6 C 16,7 km/h (3 Bft)
30.03.2016 15:35 14,6 C 16,5 C 54 % 1013,8 hPa 0,0 mm 11,0 km/h (2 Bft) S 180 0 min 5,4 C 14,0 km/h (3 Bft)
30.03.2016 15:40 14,5 C 16,1 C 54 % 1013,8 hPa 0,0 mm 11,6 km/h (2 Bft) W-NW 292 0 min 5,3 C 16,7 km/h (3 Bft)
30.03.2016 15:45 14,6 C 16,0 C 54 % 1013,8 hPa 0,0 mm 12,2 km/h (2 Bft) NW 315 0 min 5,4 C 14,9 km/h (3 Bft)
30.03.2016 15:50 14,6 C 16,0 C 54 % 1013,8 hPa 0,0 mm 11,3 km/h (2 Bft) W 270 0 min 5,4 C 6,9 km/h (2 Bft)
30.03.2016 15:55 14,4 C 15,7 C 54 % 1013,8 hPa 0,0 mm 11,6 km/h (2 Bft) W-SW 247 0 min 5,2 C 21,2 km/h (4 Bft)
30.03.2016 16:00 14,6 C 15,8 C 54 % 1013,8 hPa 0,0 mm 12,5 km/h (3 Bft) N-NO 22 0 min 5,4 C 14,6 km/h (3 Bft)
30.03.2016 16:05 14,8 C 16,8 C 54 % 1013,8 hPa 0,0 mm 13,4 km/h (3 Bft) W-SW 247 0 min 5,6 C 19,7 km/h (3 Bft)
30.03.2016 16:10 14,6 C 16,6 C 54 % 1013,7 hPa 0,0 mm 14,6 km/h (3 Bft) NW 315 0 min 5,4 C 34,3 km/h (5 Bft)
30.03.2016 16:15 14,4 C 16,3 C 54 % 1013,7 hPa 0,0 mm 15,8 km/h (3 Bft) W-SW 247 0 min 5,2 C 16,7 km/h (3 Bft)
30.03.2016 16:20 14,5 C 16,1 C 55 % 1013,7 hPa 0,0 mm 15,2 km/h (3 Bft) W 270 0 min 5,6 C 17,9 km/h (3 Bft)
30.03.2016 16:25 14,5 C 16,0 C 55 % 1013,7 hPa 0,0 mm 14,6 km/h (3 Bft) NW 315 0 min 5,6 C 17,6 km/h (3 Bft)
30.03.2016 16:30 14,5 C 16,0 C 55 % 1014,2 hPa 0,0 mm 16,4 km/h (3 Bft) W 270 0 min 5,6 C 31,0 km/h (5 Bft)
30.03.2016 16:35 14,0 C 15,3 C 55 % 1014,2 hPa 0,0 mm 17,3 km/h (3 Bft) W-SW 247 0 min 5,1 C 37,3 km/h (5 Bft)
30.03.2016 16:40 13,9 C 14,9 C 55 % 1014,2 hPa 0,0 mm 16,4 km/h (3 Bft) W-NW 292 0 min 5,0 C 16,4 km/h (3 Bft)
30.03.2016 16:45 13,9 C 15,1 C 55 % 1014,2 hPa 0,0 mm 11,6 km/h (2 Bft) W 270 0 min 5,0 C 11,6 km/h (2 Bft)
30.03.2016 16:50 13,9 C 15,1 C 55 % 1013,9 hPa 0,0 mm 10,4 km/h (2 Bft) W-SW 247 0 min 5,0 C 7,2 km/h (2 Bft)
30.03.2016 16:55 14,0 C 15,4 C 55 % 1013,9 hPa 0,0 mm 10,4 km/h (2 Bft) SW 225 0 min 5,1 C 8,6 km/h (2 Bft)
30.03.2016 17:00 14,1 C 15,7 C 55 % 1013,9 hPa 0,0 mm 8,6 km/h (2 Bft) W 270 0 min 5,2 C 9,2 km/h (2 Bft)
30.03.2016 17:05 14,2 C 16,1 C 55 % 1013,9 hPa 0,0 mm 8,3 km/h (2 Bft) W 270 0 min 5,3 C 11,3 km/h (2 Bft)
30.03.2016 17:10 14,5 C 16,4 C 55 % 1013,4 hPa 0,0 mm 8,9 km/h (2 Bft) W-SW 247 0 min 5,6 C 11,0 km/h (2 Bft)
30.03.2016 17:15 14,5 C 16,7 C 55 % 1013,4 hPa 0,0 mm 8,9 km/h (2 Bft) NW 315 0 min 5,6 C 7,2 km/h (2 Bft)
30.03.2016 17:20 14,6 C 16,4 C 55 % 1013,4 hPa 0,0 mm 8,9 km/h (2 Bft) NW 315 0 min 5,7 C 15,8 km/h (3 Bft)
30.03.2016 17:25 14,4 C 15,9 C 55 % 1013,4 hPa 0,0 mm 11,3 km/h (2 Bft) W 270 0 min 5,5 C 25,6 km/h (4 Bft)
30.03.2016 17:30 14,3 C 15,6 C 55 % 1013,4 hPa 0,0 mm 11,9 km/h (2 Bft) W 270 0 min 5,4 C 16,7 km/h (3 Bft)
30.03.2016 17:35 14,0 C 14,9 C 55 % 1013,4 hPa 0,0 mm 11,3 km/h (2 Bft) W 270 0 min 5,1 C 7,7 km/h (2 Bft)
30.03.2016 17:40 13,8 C 14,6 C 55 % 1013,4 hPa 0,0 mm 9,8 km/h (2 Bft) W-SW 247 0 min 4,9 C 6,0 km/h (2 Bft)
30.03.2016 17:43 13,8 C 14,4 C 55 % 1013,4 hPa 0,0 mm 8,0 km/h (2 Bft) W 270 0 min 4,9 C 22,1 km/h (4 Bft)
30.03.2016 17:45 13,8 C 14,4 C 55 % 1013,4 hPa 0,0 mm 8,0 km/h (2 Bft) W 270 0 min 4,9 C 22,1 km/h (4 Bft)
30.03.2016 17:50 13,8 C 14,6 C 55 % 1013,1 hPa 0,0 mm 8,6 km/h (2 Bft) NW 315 0 min 4,9 C 13,1 km/h (3 Bft)
30.03.2016 17:55 13,7 C 14,5 C 55 % 1013,1 hPa 0,0 mm 7,2 km/h (2 Bft) S 180 0 min 4,8 C 3,0 km/h (1 Bft)
30.03.2016 18:00 13,5 C 14,3 C 55 % 1013,1 hPa 0,0 mm 5,1 km/h (1 Bft) S 180 0 min 4,6 C 5,7 km/h (1 Bft)
30.03.2016 18:05 13,5 C 14,5 C 56 % 1013,1 hPa 0,0 mm 4,2 km/h (1 Bft) SW 225 0 min 4,9 C 5,1 km/h (1 Bft)
30.03.2016 18:10 13,5 C 14,4 C 56 % 1013,1 hPa 0,0 mm 3,6 km/h (1 Bft) W 270 0 min 4,9 C 6,3 km/h (2 Bft)
30.03.2016 18:15 13,4 C 14,5 C 56 % 1013,1 hPa 0,0 mm 3,3 km/h (1 Bft) SW 225 0 min 4,8 C 3,3 km/h (1 Bft)
30.03.2016 18:20 13,3 C 14,2 C 56 % 1013,1 hPa 0,0 mm 3,9 km/h (1 Bft) W 270 0 min 4,7 C 3,6 km/h (1 Bft)
30.03.2016 18:25 13,1 C 13,7 C 56 % 1013,1 hPa 0,0 mm 2,4 km/h (1 Bft) SW 225 0 min 4,5 C 5,4 km/h (1 Bft)
30.03.2016 18:30 13,1 C 13,6 C 56 % 1013,2 hPa 0,0 mm 2,4 km/h (1 Bft) SW 225 0 min 4,5 C 3,0 km/h (1 Bft)
30.03.2016 18:35 13,1 C 13,4 C 57 % 1013,2 hPa 0,0 mm 1,5 km/h (1 Bft) SO 135 0 min 4,8 C 3,3 km/h (1 Bft)
30.03.2016 18:40 13,1 C 13,3 C 57 % 1013,2 hPa 0,0 mm 1,2 km/h (1 Bft) NW 315 0 min 4,8 C 0,0 km/h (0 Bft)
30.03.2016 18:45 13,1 C 13,3 C 57 % 1013,2 hPa 0,0 mm 1,2 km/h (1 Bft) SW 225 0 min 4,8 C 0,0 km/h (0 Bft)
30.03.2016 18:50 13,0 C 13,3 C 57 % 1013,1 hPa 0,0 mm 0,3 km/h (0 Bft) S-SO 157 0 min 4,7 C 0,0 km/h (0 Bft)
30.03.2016 18:55 12,8 C 13,1 C 57 % 1013,1 hPa 0,0 mm 2,7 km/h (1 Bft) W 270 0 min 4,5 C 4,8 km/h (1 Bft)
30.03.2016 19:00 12,6 C 12,9 C 58 % 1013,1 hPa 0,0 mm 4,2 km/h (1 Bft) SW 225 0 min 4,6 C 6,0 km/h (2 Bft)
30.03.2016 19:05 12,3 C 12,5 C 58 % 1013,1 hPa 0,0 mm 3,0 km/h (1 Bft) S 180 0 min 4,3 C 0,0 km/h (0 Bft)
30.03.2016 19:10 12,2 C 12,4 C 58 % 1013,2 hPa 0,0 mm 1,8 km/h (1 Bft) S 180 0 min 4,2 C 5,1 km/h (1 Bft)
30.03.2016 19:15 12,1 C 12,1 C 58 % 1013,2 hPa 0,0 mm 2,4 km/h (1 Bft) S-SW 202 0 min 4,1 C 4,8 km/h (1 Bft)
30.03.2016 19:20 12,0 C 12,1 C 59 % 1013,2 hPa 0,0 mm 1,8 km/h (1 Bft) SO 135 0 min 4,2 C 0,0 km/h (0 Bft)
30.03.2016 19:25 11,8 C 12,2 C 59 % 1013,2 hPa 0,0 mm 0,6 km/h (0 Bft) SO 135 0 min 4,1 C 0,0 km/h (0 Bft)
30.03.2016 19:30 11,7 C 12,0 C 61 % 1013,2 hPa 0,0 mm 0,0 km/h (0 Bft) O-SO 112 0 min 4,4 C 0,0 km/h (0 Bft)
30.03.2016 19:35 11,4 C 11,7 C 61 % 1013,2 hPa 0,0 mm 0,0 km/h (0 Bft) O-SO 112 0 min 4,2 C 0,0 km/h (0 Bft)
30.03.2016 19:40 11,2 C 11,4 C 61 % 1013,2 hPa 0,0 mm 0,0 km/h (0 Bft) S-SO 157 0 min 4,0 C 0,0 km/h (0 Bft)
30.03.2016 19:45 11,3 C 11,2 C 62 % 1013,2 hPa 0,0 mm 0,0 km/h (0 Bft) W-SW 247 0 min 4,3 C 0,0 km/h (0 Bft)
30.03.2016 19:50 11,1 C 11,1 C 62 % 1013,2 hPa 0,0 mm 0,0 km/h (0 Bft) O-NO 67 0 min 4,1 C 0,0 km/h (0 Bft)
30.03.2016 19:55 10,8 C 10,8 C 63 % 1013,2 hPa 0,0 mm 0,0 km/h (0 Bft) O-NO 67 0 min 4,0 C 0,0 km/h (0 Bft)
30.03.2016 20:00 10,9 C 10,8 C 65 % 1013,2 hPa 0,0 mm 0,0 km/h (0 Bft) O 90 0 min 4,6 C 0,0 km/h (0 Bft)
30.03.2016 20:05 10,7 C 10,6 C 66 % 1013,2 hPa 0,0 mm 0,0 km/h (0 Bft) W-SW 247 0 min 4,6 C 0,0 km/h (0 Bft)
30.03.2016 20:10 10,6 C 10,5 C 66 % 1013,2 hPa 0,0 mm 0,0 km/h (0 Bft) O 90 0 min 4,5 C 0,0 km/h (0 Bft)
30.03.2016 20:15 10,3 C 10,2 C 67 % 1013,2 hPa 0,0 mm 0,0 km/h (0 Bft) O-SO 112 0 min 4,4 C 0,0 km/h (0 Bft)
30.03.2016 20:20 10,2 C 10,0 C 67 % 1013,2 hPa 0,0 mm 0,0 km/h (0 Bft) S-SO 157 0 min 4,4 C 0,0 km/h (0 Bft)
30.03.2016 20:25 10,1 C 9,8 C 67 % 1013,2 hPa 0,0 mm 0,0 km/h (0 Bft) SO 135 0 min 4,3 C 0,0 km/h (0 Bft)
30.03.2016 20:30 9,9 C 9,6 C 67 % 1013,3 hPa 0,0 mm 0,0 km/h (0 Bft) O-NO 67 0 min 4,1 C 0,0 km/h (0 Bft)
30.03.2016 20:35 9,1 C 9,0 C 66 % 1013,3 hPa 0,0 mm 0,0 km/h (0 Bft) N-NO 22 0 min 3,1 C 0,0 km/h (0 Bft)
30.03.2016 20:40 9,1 C 8,9 C 68 % 1013,3 hPa 0,0 mm 0,0 km/h (0 Bft) N-NO 22 0 min 3,5 C 0,0 km/h (0 Bft)
30.03.2016 20:45 8,7 C 8,5 C 68 % 1013,3 hPa 0,0 mm 0,0 km/h (0 Bft) SW 225 0 min 3,1 C 0,0 km/h (0 Bft)
30.03.2016 20:46 8,7 C 8,5 C 68 % 1013,3 hPa 0,0 mm 0,0 km/h (0 Bft) SW 225 0 min 3,1 C 0,0 km/h (0 Bft)
30.03.2016 20:50 9,2 C 8,8 C 70 % 1013,4 hPa 0,0 mm 0,9 km/h (0 Bft) SO 135 0 min 4,0 C 5,4 km/h (1 Bft)
30.03.2016 20:55 9,9 C 9,4 C 70 % 1013,4 hPa 0,0 mm 1,5 km/h (1 Bft) SO 135 0 min 4,7 C 0,0 km/h (0 Bft)
30.03.2016 21:00 9,8 C 9,4 C 70 % 1013,4 hPa 0,0 mm 1,2 km/h (1 Bft) O-SO 112 0 min 4,6 C 0,0 km/h (0 Bft)
30.03.2016 21:05 9,7 C 9,4 C 70 % 1013,4 hPa 0,0 mm 1,2 km/h (1 Bft) SO 135 0 min 4,5 C 0,0 km/h (0 Bft)
30.03.2016 21:10 9,5 C 9,3 C 70 % 1013,3 hPa 0,0 mm 1,8 km/h (1 Bft) SO 135 0 min 4,3 C 5,7 km/h (1 Bft)
30.03.2016 21:15 9,4 C 9,2 C 70 % 1013,3 hPa 0,0 mm 2,1 km/h (1 Bft) S 180 0 min 4,2 C 3,9 km/h (1 Bft)
30.03.2016 21:20 9,3 C 9,2 C 71 % 1013,3 hPa 0,0 mm 1,8 km/h (1 Bft) O-SO 112 0 min 4,3 C 0,0 km/h (0 Bft)
30.03.2016 21:25 8,4 C 8,4 C 70 % 1013,3 hPa 0,0 mm 0,6 km/h (0 Bft) SO 135 0 min 3,3 C 0,0 km/h (0 Bft)
30.03.2016 21:30 8,7 C 8,5 C 73 % 1013,4 hPa 0,0 mm 0,3 km/h (0 Bft) O 90 0 min 4,1 C 0,0 km/h (0 Bft)
30.03.2016 21:35 8,8 C 8,5 C 74 % 1013,4 hPa 0,0 mm 0,9 km/h (0 Bft) O 90 0 min 4,4 C 3,6 km/h (1 Bft)
30.03.2016 21:40 8,8 C 8,6 C 74 % 1013,4 hPa 0,0 mm 0,6 km/h (0 Bft) O-SO 112 0 min 4,4 C 0,0 km/h (0 Bft)
30.03.2016 21:45 8,8 C 8,5 C 75 % 1013,4 hPa 0,0 mm 0,3 km/h (0 Bft) S-SO 157 0 min 4,6 C 3,3 km/h (1 Bft)
30.03.2016 21:50 8,8 C 8,6 C 75 % 1013,4 hPa 0,0 mm 0,0 km/h (0 Bft) SO 135 0 min 4,6 C 0,0 km/h (0 Bft)
30.03.2016 21:55 8,8 C 8,5 C 75 % 1013,4 hPa 0,0 mm 0,0 km/h (0 Bft) SO 135 0 min 4,6 C 0,0 km/h (0 Bft)
30.03.2016 22:00 8,5 C 8,3 C 75 % 1013,4 hPa 0,0 mm 0,0 km/h (0 Bft) N-NO 22 0 min 4,3 C 0,0 km/h (0 Bft)
30.03.2016 22:05 7,7 C 7,6 C 74 % 1013,4 hPa 0,0 mm 0,0 km/h (0 Bft) N-NO 22 0 min 3,4 C 0,0 km/h (0 Bft)
30.03.2016 22:10 7,6 C 7,4 C 74 % 1013,6 hPa 0,0 mm 0,0 km/h (0 Bft) N-NO 22 0 min 3,3 C 0,0 km/h (0 Bft)
30.03.2016 22:15 7,8 C 7,5 C 76 % 1013,6 hPa 0,0 mm 0,0 km/h (0 Bft) O-NO 67 0 min 3,8 C 0,0 km/h (0 Bft)
30.03.2016 22:20 7,4 C 7,2 C 75 % 1013,6 hPa 0,0 mm 0,0 km/h (0 Bft) N 360 0 min 3,3 C 0,0 km/h (0 Bft)
30.03.2016 22:25 8,0 C 7,6 C 78 % 1013,6 hPa 0,0 mm 0,0 km/h (0 Bft) S-SO 157 0 min 4,4 C 0,0 km/h (0 Bft)
30.03.2016 22:30 8,2 C 7,9 C 74 % 1013,5 hPa 0,0 mm 0,0 km/h (0 Bft) SO 135 0 min 3,8 C 0,0 km/h (0 Bft)
30.03.2016 22:35 7,8 C 7,7 C 77 % 1013,5 hPa 0,0 mm 0,0 km/h (0 Bft) O-NO 67 0 min 4,0 C 0,0 km/h (0 Bft)
30.03.2016 22:40 7,2 C 7,2 C 76 % 1013,5 hPa 0,0 mm 0,6 km/h (0 Bft) N-NO 22 0 min 3,3 C 3,3 km/h (1 Bft)
30.03.2016 22:45 7,0 C 6,9 C 77 % 1013,5 hPa 0,0 mm 0,6 km/h (0 Bft) O-NO 67 0 min 3,2 C 0,0 km/h (0 Bft)
30.03.2016 22:50 7,2 C 7,0 C 77 % 1013,6 hPa 0,0 mm 0,0 km/h (0 Bft) S 180 0 min 3,4 C 0,0 km/h (0 Bft)
30.03.2016 22:55 7,6 C 7,4 C 75 % 1013,6 hPa 0,0 mm 0,0 km/h (0 Bft) SO 135 0 min 3,5 C 0,0 km/h (0 Bft)
30.03.2016 23:00 7,8 C 7,6 C 75 % 1013,6 hPa 0,0 mm 0,0 km/h (0 Bft) O-NO 67 0 min 3,7 C 0,0 km/h (0 Bft)
30.03.2016 23:05 7,5 C 7,4 C 77 % 1013,6 hPa 0,0 mm 0,0 km/h (0 Bft) NO 45 0 min 3,7 C 0,0 km/h (0 Bft)
30.03.2016 23:10 7,3 C 7,2 C 77 % 1013,2 hPa 0,0 mm 0,0 km/h (0 Bft) NO 45 0 min 3,5 C 0,0 km/h (0 Bft)
30.03.2016 23:15 7,3 C 7,2 C 77 % 1013,2 hPa 0,0 mm 0,0 km/h (0 Bft) O-SO 112 0 min 3,5 C 0,0 km/h (0 Bft)
30.03.2016 23:20 7,3 C 7,2 C 77 % 1013,2 hPa 0,0 mm 0,0 km/h (0 Bft) O-SO 112 0 min 3,5 C 0,0 km/h (0 Bft)
30.03.2016 23:25 6,9 C 7,0 C 77 % 1013,2 hPa 0,0 mm 0,0 km/h (0 Bft) N-NO 22 0 min 3,2 C 0,0 km/h (0 Bft)
30.03.2016 23:30 6,8 C 6,8 C 77 % 1013,1 hPa 0,0 mm 0,0 km/h (0 Bft) NO 45 0 min 3,1 C 0,0 km/h (0 Bft)
30.03.2016 23:35 6,6 C 6,6 C 77 % 1013,1 hPa 0,0 mm 0,0 km/h (0 Bft) N-NO 22 0 min 2,9 C 0,0 km/h (0 Bft)
30.03.2016 23:40 6,6 C 6,5 C 77 % 1013,1 hPa 0,0 mm 0,0 km/h (0 Bft) N-NO 22 0 min 2,9 C 0,0 km/h (0 Bft)
30.03.2016 23:45 6,5 C 6,4 C 77 % 1013,1 hPa 0,0 mm 0,0 km/h (0 Bft) N-NO 22 0 min 2,8 C 0,0 km/h (0 Bft)
30.03.2016 23:47 6,5 C 6,4 C 77 % 1013,1 hPa 0,0 mm 0,0 km/h (0 Bft) N-NO 22 0 min 2,8 C 0,0 km/h (0 Bft)
30.03.2016 23:50 6,8 C 6,6 C 78 % 1012,7 hPa 0,0 mm 0,0 km/h (0 Bft) O-SO 112 0 min 3,2 C 0,0 km/h (0 Bft)
30.03.2016 23:55 6,9 C 6,8 C 78 % 1012,7 hPa 0,0 mm 0,0 km/h (0 Bft) O 90 0 min 3,3 C 0,0 km/h (0 Bft)
_ Min-Zeit 01:40 01:10 13:40 08:05 - 23:55 - - - 00:00 23:55
Minimum _ 5,5 C 5,3 C 52 % 1012,4 hPa - 0,0 km/h (0 Bft) - - - 1,3 C 0,0 km/h (0 Bft)
_ Max-Zeit 13:30 13:05 07:05 00:05 23:55 16:35 - - 13:35 13:30 16:35
Maximum _ 17,0 C 21,1 C 82 % 1014,9 hPa 0,0 mm 17,3 km/h
W-SW (3 Bft)
- - 5 min 7,1 C 37,3 km/h
W-SW (5 Bft)
Durchschnitt _ 10,0 C 10,8 C 68 % 1013,5 hPa #0,0 mm 4,3 km/h (1 Bft) W - #45 min. 4,1 C 5,7 km/h (1 Bft)